Avon, New Jersey
Current Conditions -  °F | °C
As of 11:35 PM on Wednesday 22 Oct 2014 (Local Time) from KBLM Reporting Station
Overcast Overcast  
Wind Chill: 52°   Ceiling: 1800
Heat Index: 52°   Visibility: 10mi
Dew Point: 45°   Wind: 17mph
Humidity: 76%   Direction: 340°NNW
Pressure: 29.72"   Gusts: 23mph
Location:  40.1917°N, 74.0159°W
Report Text: KBLM 230335Z AUTO 34015G20KT 10SM FEW012 BKN018 OVC023 11/07 A2972 RMK AO1 P0006
Loading
Personal Weather Stations






























Interactive Weather Map
Tropical Storm Tracking
New forecast layout! Learn more

10-Day Weather Forecast

Advertisements
Track Severe Weather on mobile